Time;durP1;ratioP1;P1;durP2;ratioP2;P2;SDS_P1;SDS_P2;PMS_P1;PMS_P2;Temp;Humidity;BMP_temperature;BMP_pressure;BME280_temperature;BME280_humidity;BME280_pressure;Samples;Min_cycle;Max_cycle;Signal;HPM_P1;HPM_P2
2021/04/26 00:00:32;;;;;;;10.57;6.97;;;9.80;99.90;;;;;;5014358;28;20255;-76
2021/04/26 00:02:59;;;;;;;9.17;6.70;;;9.80;99.90;;;;;;5018642;28;20288;-76
2021/04/26 00:05:27;;;;;;;13.03;7.10;;;9.70;99.90;;;;;;5024946;28;20287;-75
2021/04/26 00:07:54;;;;;;;12.07;7.23;;;9.70;99.90;;;;;;5013758;28;20323;-76
2021/04/26 00:10:20;;;;;;;9.87;7.03;;;9.60;99.90;;;;;;5021086;28;20205;-76
2021/04/26 00:12:47;;;;;;;11.53;6.83;;;9.60;99.90;;;;;;5021241;28;20661;-76
2021/04/26 00:15:17;;;;;;;11.10;6.90;;;9.60;99.90;;;;;;5026732;28;20319;-76
2021/04/26 00:17:45;;;;;;;11.40;6.77;;;9.50;99.90;;;;;;5017865;28;20203;-75
2021/04/26 00:20:13;;;;;;;10.90;7.50;;;9.60;99.90;;;;;;5023379;28;20295;-75
2021/04/26 00:22:40;;;;;;;10.47;6.87;;;9.50;99.90;;;;;;5015892;28;20287;-76
2021/04/26 00:25:07;;;;;;;12.60;7.20;;;9.50;99.90;;;;;;5018184;28;20219;-75
2021/04/26 00:27:34;;;;;;;10.67;6.80;;;9.40;99.90;;;;;;5014497;28;20288;-76
2021/04/26 00:30:00;;;;;;;11.23;7.30;;;9.40;99.90;;;;;;5016157;28;20284;-75
2021/04/26 00:32:27;;;;;;;11.47;6.67;;;9.40;99.90;;;;;;5019925;28;20303;-75
2021/04/26 00:34:54;;;;;;;10.60;7.37;;;9.30;99.90;;;;;;5014668;28;20307;-76
2021/04/26 00:37:20;;;;;;;11.80;7.13;;;9.30;99.90;;;;;;5014020;28;20242;-75
2021/04/26 00:39:47;;;;;;;12.23;6.80;;;9.20;99.90;;;;;;5014360;28;20298;-76
2021/04/26 00:42:13;;;;;;;10.80;7.13;;;9.20;99.90;;;;;;5022698;28;20649;-76
2021/04/26 00:44:40;;;;;;;11.10;6.53;;;9.20;99.90;;;;;;5014363;28;20652;-76
2021/04/26 00:47:06;;;;;;;10.53;6.77;;;9.10;99.90;;;;;;5014385;28;20288;-76
2021/04/26 00:49:33;;;;;;;11.73;7.33;;;9.10;99.90;;;;;;5013975;28;20316;-76
2021/04/26 00:52:00;;;;;;;12.80;6.83;;;9.10;99.90;;;;;;5013267;28;20729;-75
2021/04/26 00:54:27;;;;;;;12.43;7.23;;;9.10;99.90;;;;;;5013041;28;20295;-75
2021/04/26 00:56:53;;;;;;;11.47;6.67;;;9.10;99.90;;;;;;5019508;28;20225;-75
2021/04/26 00:59:21;;;;;;;13.50;6.90;;;9.00;99.90;;;;;;5013941;28;20754;-76
2021/04/26 01:01:48;;;;;;;10.83;6.73;;;9.00;99.90;;;;;;5014700;28;20293;-75
2021/04/26 01:04:14;;;;;;;11.47;6.90;;;9.00;99.90;;;;;;5013159;28;20245;-76
2021/04/26 01:06:41;;;;;;;11.23;6.67;;;8.90;99.90;;;;;;5019573;28;20287;-75
2021/04/26 01:09:08;;;;;;;10.20;7.23;;;8.90;99.90;;;;;;5028401;28;20232;-76
2021/04/26 01:11:41;;;;;;;13.63;7.60;;;8.90;99.90;;;;;;5015595;28;20289;-75
2021/04/26 01:14:25;;;;;;;9.63;7.10;;;8.80;99.90;;;;;;5014486;28;20250;-76
2021/04/26 01:16:59;;;;;;;12.77;7.30;;;8.70;99.90;;;;;;5015257;28;20331;-75
2021/04/26 01:20:00;;;;;;;10.63;7.50;;;8.60;99.90;;;;;;5017202;28;20235;-76
2021/04/26 01:22:56;;;;;;;14.73;8.20;;;8.60;99.90;;;;;;5001386;28;20777;-75
2021/04/26 01:25:25;;;;;;;12.77;7.50;;;8.50;99.90;;;;;;5013322;28;20205;-73
2021/04/26 01:28:04;;;;;;;11.40;7.73;;;8.50;99.90;;;;;;5013078;28;20317;-74
2021/04/26 01:30:35;;;;;;;12.07;7.30;;;8.50;99.90;;;;;;5009959;28;20291;-74
2021/04/26 01:33:06;;;;;;;12.20;8.17;;;8.40;99.90;;;;;;5004454;28;20326;-76
2021/04/26 01:35:34;;;;;;;13.57;7.90;;;8.40;99.90;;;;;;5013235;28;20736;-75
2021/04/26 01:38:03;;;;;;;14.37;7.47;;;8.40;99.90;;;;;;5012579;28;20227;-75
2021/04/26 01:40:31;;;;;;;11.70;7.70;;;8.30;99.90;;;;;;5012661;28;20676;-75
2021/04/26 01:42:59;;;;;;;12.17;7.23;;;8.30;99.90;;;;;;5020917;28;20205;-74
2021/04/26 01:45:26;;;;;;;15.70;8.07;;;8.20;99.90;;;;;;5027834;28;20208;-76
2021/04/26 01:47:56;;;;;;;15.47;7.70;;;8.20;99.90;;;;;;5012218;28;20312;-75
2021/04/26 01:50:24;;;;;;;13.80;7.70;;;8.20;99.90;;;;;;5012806;28;20206;-75
2021/04/26 01:52:52;;;;;;;12.30;7.40;;;8.20;99.90;;;;;;5005534;28;20296;-75
2021/04/26 01:55:20;;;;;;;13.90;7.60;;;8.20;99.90;;;;;;5004354;28;20302;-75
2021/04/26 01:57:47;;;;;;;11.83;7.67;;;8.20;99.90;;;;;;5013179;28;20201;-75
2021/04/26 02:00:19;;;;;;;14.67;8.50;;;8.10;99.90;;;;;;5012599;28;20215;-75
2021/04/26 02:02:45;;;;;;;13.53;8.17;;;8.00;99.90;;;;;;5012365;28;20633;-75
2021/04/26 02:05:14;;;;;;;10.47;7.47;;;8.00;99.90;;;;;;5011482;28;20215;-75
2021/04/26 02:07:43;;;;;;;10.87;7.70;;;8.00;99.90;;;;;;5012223;28;20313;-76
2021/04/26 02:10:11;;;;;;;12.53;8.37;;;7.90;99.90;;;;;;5012684;28;20297;-76
2021/04/26 02:12:38;;;;;;;13.63;8.20;;;7.90;99.90;;;;;;5018140;28;20360;-75
2021/04/26 02:15:08;;;;;;;13.70;8.07;;;7.80;99.90;;;;;;5011936;28;20247;-75
2021/04/26 02:17:35;;;;;;;12.43;8.80;;;7.80;99.90;;;;;;5016032;28;20722;-75
2021/04/26 02:20:04;;;;;;;11.00;7.93;;;7.80;99.90;;;;;;5012632;28;20216;-76
2021/04/26 02:22:30;;;;;;;11.53;8.20;;;7.70;99.90;;;;;;5011961;28;20240;-75
2021/04/26 02:24:57;;;;;;;14.73;8.07;;;7.70;99.90;;;;;;5011826;28;20288;-75
2021/04/26 02:27:24;;;;;;;14.43;8.43;;;7.60;99.90;;;;;;5012966;28;20212;-75
2021/04/26 02:29:51;;;;;;;14.07;8.30;;;7.60;99.90;;;;;;5012608;28;20292;-75
2021/04/26 02:32:24;;;;;;;12.57;8.60;;;7.60;99.90;;;;;;5016782;28;20208;-75
2021/04/26 02:34:53;;;;;;;12.00;7.97;;;7.60;99.90;;;;;;5012001;28;20356;-75
2021/04/26 02:37:30;;;;;;;15.90;8.87;;;7.60;99.90;;;;;;5014474;28;20296;-76
2021/04/26 02:40:04;;;;;;;13.83;8.80;;;7.50;99.90;;;;;;5011819;28;20556;-73
2021/04/26 02:42:33;;;;;;;12.90;8.20;;;7.50;99.90;;;;;;5013310;28;20204;-73
2021/04/26 02:45:00;;;;;;;12.53;7.70;;;7.50;99.90;;;;;;5012123;28;20228;-74
2021/04/26 02:47:28;;;;;;;15.60;8.97;;;7.50;99.90;;;;;;5016883;28;20244;-74
2021/04/26 02:49:55;;;;;;;13.93;8.20;;;7.40;99.90;;;;;;5016498;28;20207;-74
2021/04/26 02:52:22;;;;;;;14.47;8.23;;;7.40;99.90;;;;;;5011684;28;20284;-74
2021/04/26 02:54:50;;;;;;;13.47;8.10;;;7.40;99.90;;;;;;5012098;28;20225;-74
2021/04/26 02:57:17;;;;;;;13.27;7.63;;;7.40;99.90;;;;;;5011445;28;20215;-74
2021/04/26 02:59:46;;;;;;;14.67;8.00;;;7.40;99.90;;;;;;5013774;28;20416;-74
2021/04/26 03:02:14;;;;;;;15.47;8.77;;;7.30;99.90;;;;;;5011318;28;20198;-73
2021/04/26 03:04:42;;;;;;;11.63;7.70;;;7.30;99.90;;;;;;5011951;28;20293;-73
2021/04/26 03:07:09;;;;;;;13.10;7.93;;;7.20;99.90;;;;;;5011784;28;20256;-76
2021/04/26 03:09:36;;;;;;;13.00;8.80;;;7.10;99.90;;;;;;5013866;28;20220;-76
2021/04/26 03:12:04;;;;;;;13.20;8.00;;;7.00;99.90;;;;;;5012864;28;20233;-73
2021/04/26 03:14:32;;;;;;;14.77;9.13;;;7.00;99.90;;;;;;5011702;28;20663;-75
2021/04/26 03:16:59;;;;;;;13.63;8.40;;;7.00;99.90;;;;;;5010295;28;20709;-74
2021/04/26 03:19:26;;;;;;;15.40;8.50;;;6.90;99.90;;;;;;5010863;28;20678;-74
2021/04/26 03:21:55;;;;;;;13.70;8.47;;;6.80;99.90;;;;;;5020939;28;20328;-74
2021/04/26 03:24:21;;;;;;;12.60;8.37;;;6.90;99.90;;;;;;5012010;28;20292;-74
2021/04/26 03:26:50;;;;;;;15.97;8.90;;;6.90;99.90;;;;;;5013364;28;20226;-74
2021/04/26 03:29:18;;;;;;;12.50;8.47;;;6.90;99.90;;;;;;5010875;28;20306;-74
2021/04/26 03:31:47;;;;;;;13.17;8.50;;;6.80;99.90;;;;;;5011308;28;20201;-74
2021/04/26 03:34:14;;;;;;;14.97;8.90;;;6.70;99.90;;;;;;5012103;28;20300;-74
2021/04/26 03:36:41;;;;;;;15.43;9.33;;;6.70;99.90;;;;;;5012933;28;20300;-74
2021/04/26 03:39:09;;;;;;;14.53;8.83;;;6.70;99.90;;;;;;5011078;28;20235;-76
2021/04/26 03:41:36;;;;;;;15.47;8.87;;;6.70;99.90;;;;;;5012288;28;20201;-74
2021/04/26 03:44:03;;;;;;;13.87;8.47;;;6.70;99.90;;;;;;5016220;28;20288;-74
2021/04/26 03:46:30;;;;;;;15.67;9.23;;;6.70;99.90;;;;;;5013188;28;21220;-74
2021/04/26 03:48:57;;;;;;;12.63;9.00;;;6.60;99.90;;;;;;5021523;28;20249;-74
2021/04/26 03:51:23;;;;;;;14.23;8.70;;;6.50;99.90;;;;;;5027511;28;20303;-74
2021/04/26 03:53:50;;;;;;;11.83;8.77;;;6.50;99.90;;;;;;5010178;28;20696;-74
2021/04/26 03:56:16;;;;;;;15.30;8.67;;;6.50;99.90;;;;;;5009775;28;20296;-74
2021/04/26 03:58:42;;;;;;;12.63;8.70;;;6.60;99.90;;;;;;5010979;28;20288;-74
2021/04/26 04:01:09;;;;;;;13.00;8.63;;;6.50;99.90;;;;;;5010810;28;20296;-74
2021/04/26 04:03:38;;;;;;;17.33;9.37;;;6.40;99.90;;;;;;5016453;28;20283;-74
2021/04/26 04:06:05;;;;;;;15.83;9.50;;;6.30;99.90;;;;;;5007939;28;20217;-74
2021/04/26 04:08:32;;;;;;;14.13;9.60;;;6.40;99.90;;;;;;5010858;28;20225;-74
2021/04/26 04:10:58;;;;;;;16.17;9.63;;;6.30;99.90;;;;;;5012529;28;20232;-73
2021/04/26 04:13:24;;;;;;;17.00;9.87;;;6.30;99.90;;;;;;5010226;28;20307;-74
2021/04/26 04:15:51;;;;;;;13.83;9.27;;;6.30;99.90;;;;;;5010856;28;20243;-74
2021/04/26 04:18:17;;;;;;;14.70;9.67;;;6.20;99.90;;;;;;5010858;28;20232;-75
2021/04/26 04:20:43;;;;;;;17.33;9.47;;;6.30;99.90;;;;;;5011265;28;20240;-73
2021/04/26 04:23:11;;;;;;;15.80;9.70;;;6.20;99.90;;;;;;5010540;28;20284;-74
2021/04/26 04:25:37;;;;;;;19.13;9.63;;;6.10;99.90;;;;;;5010973;28;20595;-76
2021/04/26 04:28:04;;;;;;;19.70;10.80;;;6.20;99.90;;;;;;5010920;28;20392;-74
2021/04/26 04:30:31;;;;;;;17.83;10.20;;;6.10;99.90;;;;;;5013763;28;20243;-75
2021/04/26 04:32:57;;;;;;;18.67;10.07;;;6.10;99.90;;;;;;5014272;28;20255;-73
2021/04/26 04:35:24;;;;;;;16.93;10.30;;;6.10;99.90;;;;;;5014156;28;20765;-75
2021/04/26 04:37:50;;;;;;;16.80;10.47;;;6.10;99.90;;;;;;5017914;28;20577;-75
2021/04/26 04:40:17;;;;;;;16.90;10.83;;;6.00;99.90;;;;;;5013846;28;20737;-76
2021/04/26 04:42:44;;;;;;;15.90;10.33;;;6.10;99.90;;;;;;5014275;28;20200;-74
2021/04/26 04:45:12;;;;;;;17.37;10.63;;;6.00;99.90;;;;;;5014717;28;20296;-75
2021/04/26 04:47:38;;;;;;;17.50;11.10;;;6.00;99.90;;;;;;5017185;28;20284;-75
2021/04/26 04:50:05;;;;;;;18.40;10.97;;;6.00;99.90;;;;;;5014105;28;20287;-75
2021/04/26 04:52:31;;;;;;;15.97;10.47;;;6.00;99.90;;;;;;5010130;28;20244;-75
2021/04/26 04:54:58;;;;;;;15.53;10.50;;;6.00;99.90;;;;;;5013390;28;20252;-75
2021/04/26 04:57:25;;;;;;;15.43;10.50;;;6.00;99.90;;;;;;5013078;28;20295;-75
2021/04/26 04:59:51;;;;;;;17.73;11.07;;;5.90;99.90;;;;;;5021689;28;20253;-75
2021/04/26 05:02:18;;;;;;;17.77;10.73;;;5.90;99.90;;;;;;5014711;28;20303;-76
2021/04/26 05:04:44;;;;;;;15.73;11.50;;;6.00;99.90;;;;;;5014055;28;20288;-75
2021/04/26 05:07:11;;;;;;;16.90;10.90;;;5.90;99.90;;;;;;5013553;28;20284;-75
2021/04/26 05:09:37;;;;;;;17.97;11.00;;;6.00;99.90;;;;;;5022848;28;20330;-75
2021/04/26 05:12:04;;;;;;;17.03;11.03;;;6.00;99.90;;;;;;5019339;28;20291;-74
2021/04/26 05:14:32;;;;;;;17.93;10.50;;;6.00;99.90;;;;;;5013897;28;20248;-75
2021/04/26 05:16:58;;;;;;;17.03;11.07;;;6.00;99.90;;;;;;5013747;28;20625;-74
2021/04/26 05:19:25;;;;;;;18.67;10.60;;;6.00;99.90;;;;;;4996049;28;20897;-75
2021/04/26 05:21:51;;;;;;;15.70;10.33;;;6.00;99.90;;;;;;5013230;28;20208;-75
2021/04/26 05:24:18;;;;;;;16.47;11.07;;;6.10;99.90;;;;;;5016146;28;20767;-75
2021/04/26 05:26:44;;;;;;;15.90;10.87;;;6.10;99.90;;;;;;5014100;28;20647;-75
2021/04/26 05:29:11;;;;;;;18.03;10.90;;;6.10;99.90;;;;;;5029276;28;20262;-75
2021/04/26 05:31:38;;;;;;;16.70;10.77;;;6.10;99.90;;;;;;5014717;28;20904;-75
2021/04/26 05:34:04;;;;;;;16.63;10.67;;;6.00;99.90;;;;;;5013697;28;20567;-75
2021/04/26 05:36:31;;;;;;;16.40;10.30;;;6.10;99.90;;;;;;5016676;28;20212;-75
2021/04/26 05:38:59;;;;;;;15.17;10.00;;;6.10;99.90;;;;;;5013555;28;20315;-74
2021/04/26 05:41:26;;;;;;;20.80;11.00;;;6.10;99.90;;;;;;5012427;28;20208;-74
2021/04/26 05:43:52;;;;;;;16.40;10.90;;;6.00;99.90;;;;;;5014423;28;20228;-74
2021/04/26 05:46:20;;;;;;;17.07;9.90;;;6.10;99.90;;;;;;5020461;28;20295;-73
2021/04/26 05:48:47;;;;;;;16.93;11.20;;;6.10;99.90;;;;;;5015662;28;20747;-73
2021/04/26 05:51:13;;;;;;;17.33;11.20;;;6.10;99.90;;;;;;5013045;28;20232;-74
2021/04/26 05:53:40;;;;;;;16.47;10.47;;;6.20;99.90;;;;;;5016979;28;20254;-74
2021/04/26 05:56:06;;;;;;;18.37;10.43;;;6.20;99.90;;;;;;5019765;28;20208;-74
2021/04/26 05:58:33;;;;;;;17.27;10.30;;;6.40;99.90;;;;;;5025970;28;20251;-74
2021/04/26 06:01:00;;;;;;;17.83;11.17;;;6.40;99.90;;;;;;5025203;28;20318;-74
2021/04/26 06:03:26;;;;;;;17.07;10.30;;;6.50;99.90;;;;;;5030814;28;20626;-74
2021/04/26 06:05:54;;;;;;;18.00;10.67;;;6.60;99.90;;;;;;5012986;28;20300;-74
2021/04/26 06:08:20;;;;;;;17.03;11.00;;;6.80;99.90;;;;;;5016189;28;20326;-74
2021/04/26 06:10:47;;;;;;;14.40;10.17;;;6.80;99.90;;;;;;5025224;28;20284;-73
2021/04/26 06:13:13;;;;;;;16.20;10.80;;;6.90;99.90;;;;;;5011821;28;20300;-74
2021/04/26 06:15:40;;;;;;;15.57;10.67;;;7.00;99.90;;;;;;5012800;28;20731;-74
2021/04/26 06:18:11;;;;;;;17.83;10.57;;;7.20;99.90;;;;;;5014722;28;20281;-74
2021/04/26 06:20:38;;;;;;;17.37;10.50;;;7.40;99.90;;;;;;5012760;28;20287;-74
2021/04/26 06:23:06;;;;;;;14.70;9.67;;;7.50;99.90;;;;;;5019838;28;20359;-74
2021/04/26 06:25:33;;;;;;;17.00;9.93;;;7.40;99.90;;;;;;5012911;28;20298;-74
2021/04/26 06:28:00;;;;;;;15.80;10.80;;;7.60;99.90;;;;;;5026998;28;20349;-74
2021/04/26 06:30:26;;;;;;;18.37;10.30;;;7.70;99.90;;;;;;5014983;28;20265;-74
2021/04/26 06:32:53;;;;;;;16.90;10.50;;;8.00;99.90;;;;;;5031888;28;20204;-74
2021/04/26 06:35:19;;;;;;;15.60;9.83;;;8.20;99.90;;;;;;5019984;28;20243;-74
2021/04/26 06:37:46;;;;;;;15.77;10.50;;;8.10;99.90;;;;;;4987175;28;20712;-74
2021/04/26 06:40:15;;;;;;;16.50;10.67;;;7.80;99.90;;;;;;5014247;28;20660;-74
2021/04/26 06:42:42;;;;;;;15.17;9.97;;;7.60;99.90;;;;;;5007850;28;20254;-74
2021/04/26 06:45:10;;;;;;;15.67;10.77;;;7.80;99.90;;;;;;5021174;28;20672;-74
2021/04/26 06:47:37;;;;;;;14.87;10.03;;;7.70;99.90;;;;;;5016077;28;20265;-74
2021/04/26 06:50:04;;;;;;;15.93;10.67;;;7.70;99.90;;;;;;5018695;28;20673;-74
2021/04/26 06:52:31;;;;;;;19.00;10.33;;;8.00;99.90;;;;;;5023683;28;20204;-74
2021/04/26 06:54:57;;;;;;;16.33;10.13;;;8.00;99.90;;;;;;5012754;28;20412;-74
2021/04/26 06:57:24;;;;;;;13.87;10.33;;;7.90;99.90;;;;;;5017099;28;20628;-74
2021/04/26 06:59:51;;;;;;;16.03;9.83;;;7.90;99.90;;;;;;5014027;28;20287;-74
2021/04/26 07:02:17;;;;;;;15.23;9.43;;;7.80;99.90;;;;;;5017432;28;20634;-72
2021/04/26 07:04:44;;;;;;;15.77;10.67;;;8.20;99.90;;;;;;5018745;28;20303;-74
2021/04/26 07:07:10;;;;;;;14.80;10.23;;;8.10;99.90;;;;;;5017049;28;20245;-74
2021/04/26 07:09:37;;;;;;;16.00;10.27;;;8.40;99.90;;;;;;5020310;28;20249;-74
2021/04/26 07:12:03;;;;;;;15.23;10.40;;;8.90;99.90;;;;;;5013087;28;20261;-74
2021/04/26 07:14:31;;;;;;;14.43;10.37;;;8.90;99.90;;;;;;5013169;28;20637;-74
2021/04/26 07:16:58;;;;;;;16.27;10.80;;;8.50;99.90;;;;;;5023067;28;20315;-75
2021/04/26 07:19:24;;;;;;;14.77;10.80;;;8.80;99.90;;;;;;5014544;28;20283;-75
2021/04/26 07:21:51;;;;;;;16.20;11.27;;;8.60;99.90;;;;;;5018989;28;20629;-73
2021/04/26 07:24:17;;;;;;;16.13;10.73;;;8.70;99.90;;;;;;5011108;28;20296;-75
2021/04/26 07:26:44;;;;;;;15.13;10.43;;;9.00;99.90;;;;;;5016718;28;20587;-75
2021/04/26 07:29:10;;;;;;;13.10;10.13;;;9.10;99.90;;;;;;5016645;28;20306;-75
2021/04/26 07:31:38;;;;;;;14.47;10.53;;;8.90;99.90;;;;;;5020631;28;20200;-75
2021/04/26 07:34:04;;;;;;;16.60;10.17;;;9.10;99.90;;;;;;5011690;28;20749;-72
2021/04/26 07:36:31;;;;;;;15.43;10.40;;;9.10;99.90;;;;;;5015316;28;20286;-75
2021/04/26 07:38:57;;;;;;;14.17;9.90;;;9.40;99.90;;;;;;5015416;28;20285;-75
2021/04/26 07:41:24;;;;;;;16.13;10.37;;;9.80;99.90;;;;;;5016916;28;20210;-74
2021/04/26 07:43:51;;;;;;;24.33;11.67;;;10.10;99.90;;;;;;5017210;28;20211;-75
2021/04/26 07:46:17;;;;;;;17.33;10.10;;;9.70;99.90;;;;;;5011790;28;20201;-72
2021/04/26 07:48:44;;;;;;;14.53;9.80;;;9.70;99.90;;;;;;5016041;28;20218;-75
2021/04/26 07:51:11;;;;;;;14.07;9.90;;;9.50;99.90;;;;;;5015296;28;20251;-74
2021/04/26 07:53:37;;;;;;;15.43;10.43;;;9.80;99.90;;;;;;5015638;28;20739;-74
2021/04/26 07:56:04;;;;;;;15.10;10.83;;;10.10;99.90;;;;;;5022870;28;20218;-74
2021/04/26 07:58:30;;;;;;;17.40;10.43;;;9.90;99.90;;;;;;5019486;28;20336;-74
2021/04/26 08:00:58;;;;;;;16.10;10.43;;;10.00;99.90;;;;;;5012169;28;20234;-75
2021/04/26 08:03:24;;;;;;;16.67;10.30;;;10.20;99.90;;;;;;5016851;28;20560;-75
2021/04/26 08:05:52;;;;;;;14.50;10.07;;;10.20;99.90;;;;;;5020606;28;20397;-75
2021/04/26 08:08:19;;;;;;;19.50;10.70;;;10.00;99.90;;;;;;5019941;28;20263;-74
2021/04/26 08:10:45;;;;;;;19.17;10.10;;;10.00;99.90;;;;;;5020257;28;20234;-72
2021/04/26 08:13:12;;;;;;;13.97;9.73;;;10.00;99.90;;;;;;5022547;28;20883;-75
2021/04/26 08:15:38;;;;;;;12.40;9.77;;;10.00;99.90;;;;;;5021899;28;20241;-75
2021/04/26 08:18:05;;;;;;;14.67;10.40;;;9.90;99.90;;;;;;5022273;28;20300;-74
2021/04/26 08:20:31;;;;;;;15.77;9.47;;;10.10;99.90;;;;;;4995608;28;20635;-74
2021/04/26 08:22:59;;;;;;;12.63;9.50;;;10.30;99.90;;;;;;5015108;28;20293;-74
2021/04/26 08:25:25;;;;;;;14.40;9.87;;;10.30;99.90;;;;;;5012627;28;20229;-74
2021/04/26 08:27:52;;;;;;;14.20;10.10;;;10.30;99.90;;;;;;5013195;28;20236;-74
2021/04/26 08:30:19;;;;;;;15.83;9.93;;;10.40;99.90;;;;;;5012838;28;20267;-74
2021/04/26 08:32:45;;;;;;;14.70;9.73;;;10.40;99.90;;;;;;5010285;28;20761;-74
2021/04/26 08:35:12;;;;;;;17.23;10.00;;;10.70;99.90;;;;;;5014847;28;20207;-74
2021/04/26 08:37:38;;;;;;;12.47;9.23;;;10.70;99.90;;;;;;5008223;28;20213;-74
2021/04/26 08:40:07;;;;;;;14.53;9.90;;;11.00;99.90;;;;;;5018679;28;20230;-74
2021/04/26 08:42:34;;;;;;;15.93;9.87;;;10.70;99.90;;;;;;5018097;28;20602;-74
2021/04/26 08:45:01;;;;;;;13.23;9.10;;;10.90;99.90;;;;;;5015046;28;20212;-74
2021/04/26 08:47:28;;;;;;;14.37;8.97;;;11.10;99.90;;;;;;5005924;28;20216;-73
2021/04/26 08:49:56;;;;;;;12.03;8.90;;;11.70;99.90;;;;;;5013898;28;20224;-74
2021/04/26 08:53:01;;;;;;;13.03;9.23;;;11.70;99.90;;;;;;5015982;28;20205;-75
2021/04/26 08:55:28;;;;;;;14.03;9.00;;;11.60;99.90;;;;;;5010945;28;20207;-74
2021/04/26 08:57:55;;;;;;;11.83;8.47;;;11.90;99.90;;;;;;5016156;28;20297;-74
2021/04/26 09:00:23;;;;;;;13.23;9.77;;;12.40;99.90;;;;;;5017508;28;20808;-74
2021/04/26 09:02:55;;;;;;;11.23;9.43;;;12.40;99.90;;;;;;5016188;28;20290;-73
2021/04/26 09:05:27;;;;;;;12.80;8.67;;;12.30;99.90;;;;;;5015605;28;20208;-74
2021/04/26 09:07:56;;;;;;;15.03;9.13;;;12.80;99.90;;;;;;4996463;28;20283;-74
2021/04/26 09:10:46;;;;;;;14.80;8.97;;;12.90;99.90;;;;;;5012503;28;20311;-74
2021/04/26 09:13:23;;;;;;;12.83;8.97;;;12.50;99.90;;;;;;5010766;28;20310;-73
2021/04/26 09:15:51;;;;;;;11.33;8.93;;;12.90;99.90;;;;;;5015598;28;20260;-73
2021/04/26 09:18:18;;;;;;;12.10;8.77;;;13.10;99.90;;;;;;5020379;28;20216;-73
2021/04/26 09:20:47;;;;;;;12.67;9.27;;;13.00;99.90;;;;;;5010857;28;20292;-74
2021/04/26 09:23:16;;;;;;;12.30;9.73;;;13.60;99.90;;;;;;5022269;28;20650;-74
2021/04/26 09:25:44;;;;;;;12.47;9.03;;;14.10;99.90;;;;;;5022045;28;20255;-74
2021/04/26 09:28:13;;;;;;;10.03;8.70;;;14.20;99.90;;;;;;5016412;28;20197;-74
2021/04/26 09:30:43;;;;;;;10.13;8.57;;;13.40;99.90;;;;;;5009292;28;20717;-74
2021/04/26 09:33:33;;;;;;;16.50;8.60;;;13.20;99.90;;;;;;4997127;28;20227;-73
2021/04/26 09:36:08;;;;;;;10.50;8.87;;;13.20;99.90;;;;;;5016760;28;20236;-74
2021/04/26 09:38:38;;;;;;;12.37;8.20;;;13.30;99.90;;;;;;5015361;28;20648;-74
2021/04/26 09:41:16;;;;;;;11.80;8.37;;;13.50;99.90;;;;;;5018112;28;20243;-74
2021/04/26 09:43:44;;;;;;;14.70;8.73;;;13.50;99.90;;;;;;5014110;28;20351;-74
2021/04/26 09:46:14;;;;;;;9.77;7.97;;;13.60;99.90;;;;;;5015509;28;20249;-74
2021/04/26 09:48:41;;;;;;;11.10;7.80;;;13.80;99.90;;;;;;5019869;28;20327;-73
2021/04/26 09:51:09;;;;;;;12.33;8.50;;;13.50;99.90;;;;;;5013656;28;20203;-74
2021/04/26 09:53:52;;;;;;;12.30;8.07;;;13.50;99.90;;;;;;4995435;28;20283;-74
2021/04/26 09:56:22;;;;;;;11.80;7.53;;;13.50;99.90;;;;;;5010496;28;20212;-74
2021/04/26 09:58:50;;;;;;;9.80;7.60;;;14.00;99.90;;;;;;5013220;28;20229;-74
2021/04/26 10:01:16;;;;;;;10.77;8.17;;;13.80;99.90;;;;;;5010648;28;20715;-74
2021/04/26 10:03:43;;;;;;;12.37;7.33;;;13.60;99.90;;;;;;5016804;28;20250;-73
2021/04/26 10:06:12;;;;;;;13.77;7.80;;;14.00;99.90;;;;;;5009691;28;20542;-74
2021/04/26 10:08:39;;;;;;;11.27;8.10;;;13.90;99.90;;;;;;5011285;28;20720;-74
2021/04/26 10:11:06;;;;;;;10.10;7.70;;;13.70;99.90;;;;;;5012479;28;20300;-74
2021/04/26 10:13:33;;;;;;;10.40;7.33;;;14.10;99.90;;;;;;5012992;28;20839;-74
2021/04/26 10:16:03;;;;;;;12.03;7.40;;;14.50;99.90;;;;;;5012245;28;20304;-73
2021/04/26 10:18:33;;;;;;;10.70;7.73;;;15.00;99.90;;;;;;5013800;28;20872;-73
2021/04/26 10:21:00;;;;;;;11.83;7.53;;;14.40;99.90;;;;;;4993989;28;20208;-73
2021/04/26 10:23:39;;;;;;;10.13;7.90;;;14.80;99.90;;;;;;5010431;28;20288;-73
2021/04/26 10:26:06;;;;;;;12.83;7.83;;;14.80;99.90;;;;;;4995014;28;20208;-74
2021/04/26 10:28:35;;;;;;;11.90;7.73;;;14.50;99.90;;;;;;5013827;28;20663;-72
2021/04/26 10:31:13;;;;;;;11.20;7.63;;;14.20;99.90;;;;;;5013742;28;20215;-73
2021/04/26 10:34:08;;;;;;;12.40;7.67;;;14.60;99.90;;;;;;5011887;28;20200;-73
2021/04/26 10:36:46;;;;;;;10.37;7.40;;;14.40;99.90;;;;;;4992736;28;20305;-75
2021/04/26 10:39:14;;;;;;;11.33;7.57;;;14.80;99.90;;;;;;5013136;28;20283;-72
2021/04/26 10:42:11;;;;;;;9.30;7.17;;;15.40;99.90;;;;;;4993290;28;20201;-74
2021/04/26 10:44:52;;;;;;;9.90;7.20;;;15.50;99.90;;;;;;5009518;28;20205;-74
2021/04/26 10:47:27;;;;;;;9.67;7.47;;;15.10;99.90;;;;;;5014286;28;20242;-74
2021/04/26 10:50:28;;;;;;;12.33;7.30;;;15.00;99.90;;;;;;5015013;28;20303;-72
2021/04/26 10:52:56;;;;;;;11.20;6.90;;;14.90;99.90;;;;;;5020406;28;20948;-73
2021/04/26 10:55:52;;;;;;;10.03;6.73;;;15.40;99.90;;;;;;5011508;28;20208;-73
2021/04/26 10:58:33;;;;;;;8.10;6.70;;;15.30;99.90;;;;;;5006013;28;20686;-73
2021/04/26 11:01:00;;;;;;;12.20;7.57;;;15.40;99.90;;;;;;5016580;28;20204;-73
2021/04/26 11:03:40;;;;;;;8.70;7.03;;;14.80;99.90;;;;;;5015055;28;20695;-73
2021/04/26 11:06:12;;;;;;;8.27;6.70;;;15.40;99.90;;;;;;5012079;28;20208;-74
2021/04/26 11:08:43;;;;;;;10.53;7.20;;;16.20;99.90;;;;;;5022769;28;20324;-73
2021/04/26 11:11:14;;;;;;;9.87;7.10;;;15.50;99.90;;;;;;5019183;28;20216;-73
2021/04/26 11:13:53;;;;;;;10.43;6.20;;;15.90;99.90;;;;;;5003328;28;20329;-73
2021/04/26 11:16:22;;;;;;;8.63;6.37;;;15.90;99.90;;;;;;5014454;28;20235;-72
2021/04/26 11:19:11;;;;;;;7.93;6.50;;;15.50;99.90;;;;;;5021580;28;20200;-72
2021/04/26 11:21:58;;;;;;;8.97;6.70;;;15.90;99.90;;;;;;5015978;28;20294;-73
2021/04/26 11:24:52;;;;;;;8.60;6.50;;;16.40;99.90;;;;;;5017707;28;20208;-73
2021/04/26 11:27:21;;;;;;;10.17;6.53;;;16.50;99.40;;;;;;5012928;28;20649;-74
2021/04/26 11:30:18;;;;;;;11.83;6.20;;;16.00;99.90;;;;;;5011970;28;20311;-74
2021/04/26 11:33:12;;;;;;;8.23;6.50;;;16.40;99.10;;;;;;4983908;28;20236;-74
2021/04/26 11:36:12;;;;;;;11.87;6.50;;;16.00;98.60;;;;;;4966709;28;20606;-74
2021/04/26 11:38:39;;;;;;;10.10;6.37;;;16.80;99.30;;;;;;5013482;28;20196;-74
2021/04/26 11:41:06;;;;;;;8.67;6.27;;;16.80;98.00;;;;;;5017546;28;20193;-75
2021/04/26 11:43:43;;;;;;;8.70;6.33;;;16.80;98.90;;;;;;5018635;28;20201;-74
2021/04/26 11:46:09;;;;;;;7.27;5.33;;;17.20;97.10;;;;;;5015550;28;20294;-74
2021/04/26 11:48:36;;;;;;;6.80;5.50;;;18.10;97.30;;;;;;5015219;28;20208;-75
2021/04/26 11:51:03;;;;;;;6.87;5.50;;;17.70;95.00;;;;;;5016197;28;20287;-73
2021/04/26 11:53:31;;;;;;;9.03;5.93;;;17.80;94.20;;;;;;5019390;28;20299;-73
2021/04/26 11:56:14;;;;;;;8.00;5.90;;;18.10;95.50;;;;;;5016910;28;20283;-73
2021/04/26 11:58:42;;;;;;;9.20;6.87;;;18.40;96.20;;;;;;5016416;28;20297;-73
2021/04/26 12:01:10;;;;;;;8.17;5.73;;;18.00;94.10;;;;;;5013689;28;20279;-74
2021/04/26 12:03:53;;;;;;;8.37;6.17;;;18.40;94.00;;;;;;5017926;28;20200;-73
2021/04/26 12:06:20;;;;;;;8.50;6.53;;;18.40;93.20;;;;;;5017068;28;20256;-75
2021/04/26 12:08:47;;;;;;;8.30;6.20;;;18.10;95.50;;;;;;5014039;28;20348;-75
2021/04/26 12:11:17;;;;;;;9.77;6.80;;;18.50;95.90;;;;;;5024075;28;20720;-72
2021/04/26 12:13:45;;;;;;;10.40;6.70;;;18.60;94.60;;;;;;5017018;28;20251;-75
2021/04/26 12:16:24;;;;;;;9.57;6.37;;;18.80;93.70;;;;;;5011279;28;20319;-75
2021/04/26 12:18:57;;;;;;;7.47;5.90;;;19.10;94.70;;;;;;5015717;28;20283;-75
2021/04/26 12:21:24;;;;;;;10.90;6.33;;;19.30;92.10;;;;;;5015951;28;20205;-76
2021/04/26 12:23:50;;;;;;;11.37;6.53;;;19.50;95.70;;;;;;5015814;28;20326;-75
2021/04/26 12:26:16;;;;;;;7.03;6.07;;;18.60;93.00;;;;;;5014462;28;20211;-75
2021/04/26 12:28:45;;;;;;;8.00;6.37;;;18.60;92.30;;;;;;5020511;28;20234;-75
2021/04/26 12:31:19;;;;;;;8.33;5.90;;;18.70;94.60;;;;;;5016696;28;20209;-75
2021/04/26 12:33:46;;;;;;;8.67;6.40;;;19.50;95.10;;;;;;5015254;28;20227;-76
2021/04/26 12:36:12;;;;;;;8.77;6.15;;;19.50;93.20;;;;;;5018789;28;20197;-75
2021/04/26 12:38:39;;;;;;;10.90;6.38;;;20.60;93.80;;;;;;5013817;28;20232;-75
2021/04/26 12:41:12;;;;;;;8.85;6.55;;;19.80;93.80;;;;;;5013686;28;20292;-75
2021/04/26 12:43:40;;;;;;;7.57;5.75;;;19.40;94.20;;;;;;5015038;28;20207;-75
2021/04/26 12:46:08;;;;;;;6.60;5.90;;;18.90;94.00;;;;;;5017343;28;20295;-75
2021/04/26 12:48:35;;;;;;;10.00;6.30;;;18.80;93.40;;;;;;5011851;28;20774;-76
2021/04/26 12:51:03;;;;;;;9.73;6.57;;;19.20;95.00;;;;;;5014949;28;20205;-75